createdAt,value
2022-09-15T00:00:10.445Z,1.75
2022-09-15T00:02:37.253Z,1.20
2022-09-15T00:05:04.331Z,1.05
2022-09-15T00:07:31.491Z,1.13
2022-09-15T00:09:58.347Z,1.10
2022-09-15T00:12:27.119Z,1.20
2022-09-15T00:14:54.311Z,0.90
2022-09-15T00:17:21.438Z,1.05
2022-09-15T00:19:48.243Z,1.05
2022-09-15T00:22:15.555Z,0.93
2022-09-15T00:24:42.375Z,1.10
2022-09-15T00:27:09.274Z,1.00
2022-09-15T00:29:36.406Z,1.23
2022-09-15T00:32:03.901Z,1.08
2022-09-15T00:34:30.630Z,1.05
2022-09-15T00:36:57.357Z,1.45
2022-09-15T00:39:24.086Z,1.00
2022-09-15T00:41:50.932Z,1.17
2022-09-15T00:44:23.529Z,1.40
2022-09-15T00:47:09.652Z,1.48
2022-09-15T00:49:41.195Z,0.90
2022-09-15T00:52:13.890Z,1.23
2022-09-15T00:55:02.060Z,1.50
2022-09-15T00:57:41.126Z,1.23
2022-09-15T01:00:14.794Z,1.20
2022-09-15T01:02:43.557Z,1.00
2022-09-15T01:05:12.885Z,0.93
2022-09-15T01:07:46.305Z,1.60
2022-09-15T01:10:38.265Z,2.00
2022-09-15T01:13:10.645Z,1.88
2022-09-15T01:15:42.927Z,1.80
2022-09-15T01:18:26.413Z,1.50
2022-09-15T01:21:19.838Z,1.23
2022-09-15T01:24:15.510Z,1.20
2022-09-15T01:27:37.691Z,0.95
2022-09-15T01:30:30.203Z,1.10
2022-09-15T01:33:14.773Z,1.00
2022-09-15T01:35:58.525Z,0.95
2022-09-15T01:38:43.798Z,1.10
2022-09-15T01:41:31.061Z,0.98
2022-09-15T01:44:19.170Z,1.10
2022-09-15T01:46:48.660Z,1.13
2022-09-15T01:49:20.690Z,1.10
2022-09-15T01:51:50.769Z,1.20
2022-09-15T01:54:26.065Z,1.25
2022-09-15T01:56:52.974Z,1.20
2022-09-15T01:59:19.815Z,1.25
2022-09-15T02:01:53.027Z,1.10
2022-09-15T02:04:32.155Z,1.23
2022-09-15T02:07:06.419Z,1.20
2022-09-15T02:09:38.749Z,1.40
2022-09-15T02:12:10.846Z,1.40
2022-09-15T02:14:59.457Z,1.10
2022-09-15T02:17:29.281Z,1.10
2022-09-15T02:20:31.800Z,1.25
2022-09-15T02:23:04.343Z,1.30
2022-09-15T02:25:53.983Z,1.30
2022-09-15T02:28:29.944Z,1.30
2022-09-15T02:30:59.311Z,1.17
2022-09-15T02:33:35.402Z,1.08
2022-09-15T02:36:03.725Z,1.30
2022-09-15T02:38:37.498Z,1.10
2022-09-15T02:41:05.843Z,1.20
2022-09-15T02:43:33.567Z,1.20
2022-09-15T02:46:00.681Z,1.48
2022-09-15T02:48:27.513Z,1.10
2022-09-15T02:50:54.263Z,0.95
2022-09-15T02:53:21.025Z,1.25
2022-09-15T02:55:49.593Z,0.85
2022-09-15T02:58:16.332Z,1.10
2022-09-15T03:00:43.157Z,0.90
2022-09-15T03:03:10.550Z,0.90
2022-09-15T03:05:37.322Z,1.10
2022-09-15T03:08:04.100Z,1.00
2022-09-15T03:10:32.751Z,1.20
2022-09-15T03:12:59.588Z,1.23
2022-09-15T03:15:27.174Z,0.98
2022-09-15T03:17:54.399Z,0.93
2022-09-15T03:20:24.111Z,1.10
2022-09-15T03:22:51.261Z,1.10
2022-09-15T03:25:18.548Z,0.98
2022-09-15T03:27:45.394Z,1.20
2022-09-15T03:30:12.757Z,0.85
2022-09-15T03:32:40.122Z,1.15
2022-09-15T03:35:07.557Z,1.20
2022-09-15T03:37:35.072Z,1.10
2022-09-15T03:40:03.761Z,1.20
2022-09-15T03:42:30.799Z,1.48
2022-09-15T03:44:57.557Z,1.15
2022-09-15T03:47:24.450Z,1.17
2022-09-15T03:49:51.250Z,1.10
2022-09-15T03:52:17.977Z,1.10
2022-09-15T03:54:44.690Z,1.10
2022-09-15T03:57:11.499Z,1.30
2022-09-15T03:59:38.245Z,0.90
2022-09-15T04:02:05.068Z,1.20
2022-09-15T04:04:31.894Z,1.10
2022-09-15T04:06:58.875Z,1.00
2022-09-15T04:09:25.850Z,1.30
2022-09-15T04:11:53.875Z,1.10
2022-09-15T04:14:20.685Z,1.20
2022-09-15T04:16:47.526Z,1.25
2022-09-15T04:19:14.572Z,1.10
2022-09-15T04:21:41.405Z,1.05
2022-09-15T04:24:08.188Z,1.20
2022-09-15T04:26:36.723Z,1.73
2022-09-15T04:29:11.072Z,1.25
2022-09-15T04:31:37.826Z,1.40
2022-09-15T04:34:04.967Z,1.30
2022-09-15T04:36:31.821Z,1.00
2022-09-15T04:38:59.024Z,1.20
2022-09-15T04:41:26.975Z,1.10
2022-09-15T04:43:53.880Z,1.20
2022-09-15T04:46:21.306Z,1.13
2022-09-15T04:48:48.951Z,1.33
2022-09-15T04:51:19.162Z,1.10
2022-09-15T04:53:46.402Z,1.13
2022-09-15T04:56:16.228Z,1.30
2022-09-15T04:58:45.899Z,1.10
2022-09-15T05:01:22.776Z,1.00
2022-09-15T05:03:50.112Z,1.20
2022-09-15T05:06:22.748Z,1.40
2022-09-15T05:08:51.287Z,1.15
2022-09-15T05:11:18.541Z,1.00
2022-09-15T05:13:45.792Z,1.20
2022-09-15T05:16:15.325Z,1.15
2022-09-15T05:18:44.038Z,1.20
2022-09-15T05:21:13.317Z,1.38
2022-09-15T05:23:40.764Z,1.70
2022-09-15T05:26:11.531Z,1.50
2022-09-15T05:28:38.909Z,1.50
2022-09-15T05:31:19.529Z,1.60
2022-09-15T05:33:47.994Z,1.95
2022-09-15T05:36:15.877Z,1.20
2022-09-15T05:38:43.468Z,1.60
2022-09-15T05:41:19.268Z,1.40
2022-09-15T05:43:47.523Z,1.38
2022-09-15T05:46:15.444Z,1.50
2022-09-15T05:48:42.358Z,1.30
2022-09-15T05:51:09.183Z,1.33
2022-09-15T05:53:36.645Z,1.75
2022-09-15T05:56:06.342Z,1.40
2022-09-15T05:58:33.506Z,1.95
2022-09-15T06:01:05.713Z,1.40
2022-09-15T06:03:32.572Z,1.52
2022-09-15T06:06:00.938Z,1.40
2022-09-15T06:08:35.993Z,1.70
2022-09-15T06:11:08.453Z,1.73
2022-09-15T06:13:35.322Z,1.60
2022-09-15T06:16:07.711Z,1.63
2022-09-15T06:18:36.095Z,1.88
2022-09-15T06:21:14.936Z,2.13
2022-09-15T06:23:45.022Z,2.05
2022-09-15T06:26:17.822Z,1.60
2022-09-15T06:28:54.743Z,2.10
2022-09-15T06:31:22.299Z,1.60
2022-09-15T06:33:53.095Z,1.98
2022-09-15T06:36:21.960Z,2.00
2022-09-15T06:38:49.208Z,1.70
2022-09-15T06:41:16.721Z,1.92
2022-09-15T06:43:44.303Z,2.25
2022-09-15T06:46:17.118Z,2.78
2022-09-15T06:48:47.565Z,2.08
2022-09-15T06:51:17.118Z,2.10
2022-09-15T06:53:44.684Z,2.00
2022-09-15T06:56:14.504Z,2.00
2022-09-15T06:58:42.700Z,1.90
2022-09-15T07:01:14.923Z,1.85
2022-09-15T07:03:44.023Z,2.13
2022-09-15T07:06:12.257Z,2.25
2022-09-15T07:08:39.903Z,1.55
2022-09-15T07:11:08.003Z,1.50
2022-09-15T07:13:34.849Z,1.50
2022-09-15T07:16:04.347Z,1.50
2022-09-15T07:18:32.619Z,1.73
2022-09-15T07:21:08.292Z,1.42
2022-09-15T07:23:36.041Z,1.92
2022-09-15T07:26:11.926Z,1.33
2022-09-15T07:28:39.765Z,1.30
2022-09-15T07:31:07.820Z,1.27
2022-09-15T07:33:35.771Z,1.33
2022-09-15T07:36:03.832Z,1.38
2022-09-15T07:38:30.842Z,1.55
2022-09-15T07:41:09.778Z,1.48
2022-09-15T07:43:36.888Z,1.48
2022-09-15T07:46:04.392Z,1.35
2022-09-15T07:48:31.955Z,2.05
2022-09-15T07:51:00.032Z,1.40
2022-09-15T07:53:30.427Z,1.23
2022-09-15T07:55:57.570Z,1.25
2022-09-15T07:58:25.037Z,1.30
2022-09-15T08:00:52.216Z,1.48
2022-09-15T08:03:19.361Z,1.30
2022-09-15T08:05:46.331Z,1.80
2022-09-15T08:08:13.381Z,1.20
2022-09-15T08:10:41.482Z,1.38
2022-09-15T08:13:08.850Z,1.30
2022-09-15T08:15:37.648Z,1.35
2022-09-15T08:18:05.829Z,1.50
2022-09-15T08:20:33.233Z,1.50
2022-09-15T08:23:00.191Z,1.45
2022-09-15T08:25:27.073Z,1.45
2022-09-15T08:27:54.490Z,1.35
2022-09-15T08:30:21.926Z,1.40
2022-09-15T08:32:49.449Z,1.75
2022-09-15T08:35:17.376Z,1.58
2022-09-15T08:37:44.176Z,1.88
2022-09-15T08:40:20.632Z,2.80
2022-09-15T08:42:50.218Z,1.50
2022-09-15T08:45:25.580Z,1.65
2022-09-15T08:48:00.163Z,1.50
2022-09-15T08:50:32.066Z,1.60
2022-09-15T08:53:01.892Z,1.30
2022-09-15T08:55:54.707Z,1.25
2022-09-15T08:58:34.413Z,1.20
2022-09-15T09:01:23.056Z,1.45
2022-09-15T09:04:19.137Z,1.65
2022-09-15T09:07:05.298Z,1.90
2022-09-15T09:09:41.469Z,1.50
2022-09-15T09:12:24.431Z,1.30
2022-09-15T09:15:14.176Z,1.45
2022-09-15T09:17:40.905Z,1.60
2022-09-15T09:20:13.581Z,1.50
2022-09-15T09:22:44.269Z,1.85
2022-09-15T09:25:26.668Z,1.35
2022-09-15T09:27:55.536Z,1.50
2022-09-15T09:30:24.334Z,1.58
2022-09-15T09:33:05.023Z,1.50
2022-09-15T09:35:41.903Z,1.50
2022-09-15T09:38:10.296Z,1.40
2022-09-15T09:40:40.116Z,1.40
2022-09-15T09:43:08.096Z,1.40
2022-09-15T09:45:35.137Z,1.50
2022-09-15T09:48:06.638Z,1.58
2022-09-15T09:50:44.389Z,1.10
2022-09-15T09:53:23.651Z,1.48
2022-09-15T09:55:50.612Z,1.20
2022-09-15T09:58:24.339Z,1.40
2022-09-15T10:00:52.827Z,1.30
2022-09-15T10:03:27.001Z,1.30
2022-09-15T10:06:29.373Z,1.60
2022-09-15T10:08:58.060Z,1.80
2022-09-15T10:11:48.569Z,1.77
2022-09-15T10:14:37.633Z,1.40
2022-09-15T10:17:21.454Z,1.85
2022-09-15T10:19:49.922Z,1.58
2022-09-15T10:22:35.840Z,1.90
2022-09-15T10:25:39.558Z,2.30
2022-09-15T10:28:14.783Z,1.70
2022-09-15T10:31:25.539Z,1.50
2022-09-15T10:33:52.737Z,1.50
2022-09-15T10:36:30.795Z,1.52
2022-09-15T10:39:19.644Z,1.70
2022-09-15T10:41:58.918Z,1.60
2022-09-15T10:44:37.950Z,1.67
2022-09-15T10:47:23.562Z,1.60
2022-09-15T10:50:13.737Z,1.70
2022-09-15T10:53:06.418Z,1.70
2022-09-15T10:55:53.623Z,1.83
2022-09-15T10:58:26.608Z,1.70
2022-09-15T11:01:19.048Z,2.00
2022-09-15T11:04:14.106Z,1.77
2022-09-15T11:07:12.560Z,2.00
2022-09-15T11:10:07.312Z,1.83
2022-09-15T11:13:03.056Z,1.80
2022-09-15T11:15:33.312Z,1.70
2022-09-15T11:18:32.554Z,1.77
2022-09-15T11:21:19.449Z,1.52
2022-09-15T11:24:27.776Z,1.92
2022-09-15T11:27:13.275Z,1.70
2022-09-15T11:29:52.250Z,1.80
2022-09-15T11:32:26.015Z,1.75
2022-09-15T11:35:08.015Z,2.28
2022-09-15T11:37:41.125Z,2.17
2022-09-15T11:40:17.631Z,2.30
2022-09-15T11:42:52.924Z,1.67
2022-09-15T11:45:24.490Z,1.95
2022-09-15T11:47:56.681Z,1.80
2022-09-15T11:50:45.751Z,2.00
2022-09-15T11:53:40.684Z,2.30
2022-09-15T11:56:21.889Z,2.10
2022-09-15T11:59:21.305Z,2.42
2022-09-15T12:02:25.933Z,2.40
2022-09-15T12:05:07.117Z,1.85
2022-09-15T12:07:43.448Z,2.00
2022-09-15T12:10:17.839Z,1.90
2022-09-15T12:12:46.148Z,2.40
2022-09-15T12:15:18.560Z,2.63
2022-09-15T12:17:52.322Z,2.63
2022-09-15T12:20:22.379Z,2.75
2022-09-15T12:22:57.128Z,2.55
2022-09-15T12:25:57.958Z,2.47
2022-09-15T12:28:24.896Z,2.70
2022-09-15T12:31:31.403Z,2.53
2022-09-15T12:34:29.506Z,2.30
2022-09-15T12:37:11.083Z,2.15
2022-09-15T12:39:41.267Z,2.80
2022-09-15T12:42:16.495Z,2.58
2022-09-15T12:44:49.458Z,2.08
2022-09-15T12:47:39.989Z,2.60
2022-09-15T12:50:15.821Z,2.45
2022-09-15T12:52:52.045Z,2.10
2022-09-15T12:55:28.674Z,2.60
2022-09-15T12:58:00.932Z,2.72
2022-09-15T13:00:31.106Z,2.90
2022-09-15T13:02:58.910Z,2.45
2022-09-15T13:05:46.153Z,2.33
2022-09-15T13:08:43.680Z,2.40
2022-09-15T13:11:28.491Z,2.45
2022-09-15T13:14:04.267Z,2.58
2022-09-15T13:16:40.119Z,2.50
2022-09-15T13:19:40.978Z,2.28
2022-09-15T13:22:30.136Z,2.50
2022-09-15T13:25:10.762Z,2.28
2022-09-15T13:27:43.369Z,2.63
2022-09-15T13:30:22.280Z,2.45
2022-09-15T13:33:12.230Z,2.47
2022-09-15T13:35:50.984Z,2.72
2022-09-15T13:38:32.024Z,2.40
2022-09-15T13:41:11.182Z,3.00
2022-09-15T13:43:59.747Z,2.72
2022-09-15T13:46:57.010Z,2.75
2022-09-15T13:49:39.005Z,2.60
2022-09-15T13:52:22.411Z,2.38
2022-09-15T13:55:27.913Z,2.50
2022-09-15T14:00:59.225Z,2.40
2022-09-15T14:03:50.846Z,2.22
2022-09-15T14:06:33.644Z,2.10
2022-09-15T14:09:21.571Z,2.83
2022-09-15T14:11:51.704Z,2.67
2022-09-15T14:14:27.845Z,2.60
2022-09-15T14:16:56.482Z,2.40
2022-09-15T14:19:33.712Z,2.45
2022-09-15T14:22:30.813Z,2.40
2022-09-15T14:24:59.147Z,2.50
2022-09-15T14:27:33.342Z,2.20
2022-09-15T14:30:06.663Z,2.63
2022-09-15T14:32:39.954Z,2.50
2022-09-15T14:35:09.468Z,2.63
2022-09-15T14:37:36.401Z,2.70
2022-09-15T14:40:23.612Z,2.72
2022-09-15T14:42:50.460Z,2.42
2022-09-15T14:48:16.349Z,2.67
2022-09-15T14:51:02.833Z,2.65
2022-09-15T14:53:33.951Z,2.65
2022-09-15T14:56:08.168Z,2.85
2022-09-15T14:59:00.113Z,2.40
2022-09-15T15:01:37.917Z,2.03
2022-09-15T15:04:16.382Z,2.28
2022-09-15T15:07:07.869Z,2.60
2022-09-15T15:09:44.064Z,2.53
2022-09-15T15:12:40.933Z,2.42
2022-09-15T15:15:12.510Z,2.33
2022-09-15T15:17:49.163Z,2.28
2022-09-15T15:20:22.826Z,2.42
2022-09-15T15:23:23.419Z,2.53
2022-09-15T15:25:51.252Z,2.20
2022-09-15T15:28:38.625Z,2.63
2022-09-15T15:31:21.375Z,2.50
2022-09-15T15:34:05.165Z,2.65
2022-09-15T15:36:36.558Z,2.30
2022-09-15T15:39:06.501Z,2.55
2022-09-15T15:41:41.026Z,2.90
2022-09-15T15:44:13.690Z,2.67
2022-09-15T15:46:48.106Z,2.50
2022-09-15T15:49:15.019Z,2.40
2022-09-15T15:51:42.081Z,2.40
2022-09-15T15:54:08.950Z,2.30
2022-09-15T15:56:38.036Z,2.30
2022-09-15T15:59:05.472Z,2.13
2022-09-15T16:01:33.182Z,2.40
2022-09-15T16:04:00.020Z,2.33
2022-09-15T16:06:27.007Z,1.98
2022-09-15T16:08:55.557Z,2.30
2022-09-15T16:11:22.434Z,2.55
2022-09-15T16:13:49.243Z,2.25
2022-09-15T16:16:20.685Z,2.30
2022-09-15T16:18:48.168Z,2.60
2022-09-15T16:21:20.949Z,2.00
2022-09-15T16:23:48.162Z,2.53
2022-09-15T16:26:17.626Z,2.20
2022-09-15T16:28:44.528Z,2.20
2022-09-15T16:31:13.165Z,2.00
2022-09-15T16:33:41.738Z,1.65
2022-09-15T16:36:14.048Z,1.70
2022-09-15T16:38:41.627Z,1.80
2022-09-15T16:41:20.052Z,2.10
2022-09-15T16:43:47.478Z,2.60
2022-09-15T16:46:15.310Z,1.80
2022-09-15T16:48:43.472Z,2.10
2022-09-15T16:51:29.979Z,1.90
2022-09-15T16:53:58.104Z,2.10
2022-09-15T16:56:25.012Z,1.75
2022-09-15T16:58:58.851Z,1.88
2022-09-15T17:01:26.907Z,1.80
2022-09-15T17:03:53.718Z,1.70
2022-09-15T17:06:22.104Z,1.73
2022-09-15T17:08:49.400Z,1.80
2022-09-15T17:11:18.789Z,2.03
2022-09-15T17:13:46.889Z,2.38
2022-09-15T17:16:17.739Z,2.10
2022-09-15T17:18:44.688Z,1.88
2022-09-15T17:21:12.797Z,2.10
2022-09-15T17:23:43.084Z,2.22
2022-09-15T17:26:16.954Z,2.22
2022-09-15T17:28:43.842Z,3.47
2022-09-15T17:31:17.070Z,2.20
2022-09-15T17:33:44.756Z,2.50
2022-09-15T17:36:12.131Z,2.42
2022-09-15T17:38:41.082Z,2.45
2022-09-15T17:41:16.998Z,2.75
2022-09-15T17:43:44.101Z,2.90
2022-09-15T17:46:11.045Z,2.55
2022-09-15T17:48:39.172Z,2.20
2022-09-15T17:51:07.507Z,2.60
2022-09-15T17:53:34.366Z,2.83
2022-09-15T17:56:01.339Z,2.42
2022-09-15T17:58:30.000Z,2.35
2022-09-15T18:00:57.946Z,2.20
2022-09-15T18:03:34.817Z,2.20
2022-09-15T18:06:05.372Z,2.28
2022-09-15T18:08:33.287Z,2.60
2022-09-15T18:11:00.752Z,2.60
2022-09-15T18:13:29.739Z,2.95
2022-09-15T18:15:58.269Z,2.30
2022-09-15T18:18:27.384Z,2.60
2022-09-15T18:20:55.754Z,3.03
2022-09-15T18:23:24.895Z,2.60
2022-09-15T18:25:52.237Z,2.47
2022-09-15T18:28:19.441Z,2.65
2022-09-15T18:30:49.279Z,2.83
2022-09-15T18:33:19.850Z,2.90
2022-09-15T18:35:48.274Z,2.92
2022-09-15T18:38:15.561Z,2.85
2022-09-15T18:40:49.004Z,2.80
2022-09-15T18:43:16.780Z,2.25
2022-09-15T18:45:43.586Z,3.00
2022-09-15T18:48:12.967Z,2.40
2022-09-15T18:50:40.812Z,2.45
2022-09-15T18:53:07.848Z,2.42
2022-09-15T18:55:34.720Z,2.63
2022-09-15T18:58:01.615Z,3.30
2022-09-15T19:00:28.913Z,3.20
2022-09-15T19:02:58.141Z,2.88
2022-09-15T19:05:26.061Z,2.75
2022-09-15T19:07:53.014Z,2.00
2022-09-15T19:10:19.855Z,2.08
2022-09-15T19:12:46.612Z,2.25
2022-09-15T19:15:14.284Z,2.13
2022-09-15T19:17:42.098Z,1.55
2022-09-15T19:20:11.129Z,1.65
2022-09-15T19:22:38.233Z,1.63
2022-09-15T19:25:06.266Z,1.50
2022-09-15T19:27:33.306Z,1.48
2022-09-15T19:30:00.552Z,1.60
2022-09-15T19:32:27.635Z,1.55
2022-09-15T19:34:54.398Z,1.33
2022-09-15T19:37:22.081Z,1.42
2022-09-15T19:39:49.996Z,1.50
2022-09-15T19:42:17.291Z,1.40
2022-09-15T19:44:44.777Z,1.38
2022-09-15T19:47:11.598Z,1.50
2022-09-15T19:49:38.636Z,1.42
2022-09-15T19:52:06.434Z,1.17
2022-09-15T19:54:34.482Z,1.40
2022-09-15T19:57:01.989Z,1.50
2022-09-15T19:59:31.551Z,1.40
2022-09-15T20:01:59.901Z,1.10
2022-09-15T20:04:27.388Z,1.45
2022-09-15T20:06:54.244Z,1.40
2022-09-15T20:09:21.123Z,1.52
2022-09-15T20:11:48.063Z,1.30
2022-09-15T20:14:15.075Z,1.40
2022-09-15T20:16:42.135Z,1.15
2022-09-15T20:19:09.253Z,1.20
2022-09-15T20:21:53.011Z,1.45
2022-09-15T20:24:20.991Z,1.50
2022-09-15T20:26:48.184Z,1.30
2022-09-15T20:29:15.426Z,1.30
2022-09-15T20:31:42.659Z,1.30
2022-09-15T20:34:09.592Z,1.27
2022-09-15T20:36:38.938Z,1.40
2022-09-15T20:39:10.492Z,1.35
2022-09-15T20:41:37.661Z,2.55
2022-09-15T20:44:06.131Z,1.50
2022-09-15T20:46:33.567Z,1.30
2022-09-15T20:49:00.388Z,1.45
2022-09-15T20:51:33.570Z,1.70
2022-09-15T20:54:02.115Z,1.40
2022-09-15T20:56:30.929Z,1.60
2022-09-15T20:59:00.054Z,1.48
2022-09-15T21:01:34.379Z,1.40
2022-09-15T21:04:01.660Z,1.33
2022-09-15T21:06:28.940Z,1.20
2022-09-15T21:08:56.860Z,1.10
2022-09-15T21:11:26.589Z,1.15
2022-09-15T21:13:54.717Z,1.10
2022-09-15T21:16:26.624Z,1.00
2022-09-15T21:18:54.181Z,0.90
2022-09-15T21:21:26.418Z,1.00
2022-09-15T21:23:55.516Z,1.20
2022-09-15T21:26:25.362Z,1.10
2022-09-15T21:28:53.449Z,1.10
2022-09-15T21:31:26.423Z,0.98
2022-09-15T21:33:54.494Z,1.33
2022-09-15T21:36:29.631Z,1.10
2022-09-15T21:38:58.269Z,1.30
2022-09-15T21:41:29.100Z,1.23
2022-09-15T21:43:58.095Z,1.27
2022-09-15T21:46:30.713Z,1.13
2022-09-15T21:48:59.096Z,1.23
2022-09-15T21:51:28.015Z,1.10
2022-09-15T21:53:56.456Z,1.40
2022-09-15T21:56:24.312Z,1.30
2022-09-15T21:58:51.386Z,1.27
2022-09-15T22:01:20.941Z,1.20
2022-09-15T22:03:53.742Z,1.50
2022-09-15T22:06:22.751Z,1.10
2022-09-15T22:08:49.522Z,1.10
2022-09-15T22:11:16.380Z,1.27
2022-09-15T22:13:44.770Z,1.38
2022-09-15T22:16:15.212Z,1.27
2022-09-15T22:18:43.355Z,1.25
2022-09-15T22:21:20.403Z,1.10
2022-09-15T22:23:48.407Z,1.40
2022-09-15T22:26:20.865Z,1.40
2022-09-15T22:28:48.376Z,1.55
2022-09-15T22:31:17.204Z,1.45
2022-09-15T22:33:44.826Z,1.40
2022-09-15T22:36:19.112Z,1.40
2022-09-15T22:38:46.958Z,1.48
2022-09-15T22:41:16.415Z,1.40
2022-09-15T22:43:44.607Z,1.30
2022-09-15T22:46:12.010Z,1.40
2022-09-15T22:48:43.319Z,1.30
2022-09-15T22:51:11.120Z,1.45
2022-09-15T22:53:37.929Z,1.85
2022-09-15T22:56:19.912Z,1.75
2022-09-15T22:58:48.893Z,2.30
2022-09-15T23:01:18.520Z,1.70
2022-09-15T23:03:49.265Z,2.38
2022-09-15T23:06:16.019Z,1.67
2022-09-15T23:08:42.830Z,1.88
2022-09-15T23:11:13.038Z,2.00
2022-09-15T23:13:40.967Z,2.13
2022-09-15T23:16:08.811Z,1.70
2022-09-15T23:18:36.196Z,1.88
2022-09-15T23:21:10.811Z,2.00
2022-09-15T23:23:39.448Z,1.80
2022-09-15T23:26:08.884Z,1.90
2022-09-15T23:28:35.846Z,1.80
2022-09-15T23:31:02.865Z,1.70
2022-09-15T23:33:31.521Z,2.10
2022-09-15T23:36:02.749Z,1.58
2022-09-15T23:38:30.225Z,1.75
2022-09-15T23:40:57.284Z,1.75
2022-09-15T23:43:24.083Z,1.58
2022-09-15T23:45:51.299Z,1.60
2022-09-15T23:48:18.194Z,1.83
2022-09-15T23:50:45.192Z,2.30
2022-09-15T23:53:12.622Z,1.75
2022-09-15T23:55:39.493Z,1.88
2022-09-15T23:58:06.551Z,1.95
